Keystone, South Dakota
Current Conditions -  °F | °C
As of 2:02 PM on Wednesday 26 Nov 2014 (Local Time) from KCUT Reporting Station
Overcast Overcast  
Wind Chill: 20°   Ceiling: 3000
Heat Index: 28°   Visibility: 10mi
Dew Point: 18°   Wind: 8mph
Humidity: 66%   Direction: 260°W
Pressure: 30.12"   Gusts: NA
Location:  43.9°N, 103.42°W
Report Text: KCUT 262102Z AUTO 26007KT 10SM BKN030 OVC038 M02/M08 A3012 RMK AO2 T10221078
Loading
Personal Weather Stations






























Interactive Weather Map New forecast layout! Learn more

10-Day Weather Forecast

Advertisements
Track Severe Weather on mobile